Coscoshipping Danube — VRQD2 — position and weather

sailwx.info

Track history (hours):
 
Tides and Currents Weather Stations Pressure Air Temp Water Temp Dewpoint Dewpoint Depression Visibility Wind Speed Wind Dir Waves Ship Positions

Coscoshipping Danube

Last reported at 2018-Apr-25 13:51 UTC. Time now 2018-Apr-26 11:25 UTC.
Position N 30°32' E 122°29'.

Length 300 m; draft 11.4 m.

Type: Ship (hazmat cat A). MMSI: 477858800.

Date/timePositionNaut miles runAvg speedWind from/ knotsBaromVisibWave heightAir tempDewpointWater temp
2018-Apr-25 13:51N 30°32' E 122°29'410.5
2018-Apr-25 13:27N 30°32' E 122°34'1011.7
2018-Apr-25 12:35N 30°39' E 122°43'1 3.3
2018-Apr-25 12:16N 30°40' E 122°44'  
2018-Apr-22 16:31N 34°53' E 128°51'013.0
2018-Apr-22 16:30N 34°54' E 128°51'46 1.6
2018-Apr-21 12:32N 34°09' E 128°37'0 8.2
2018-Apr-21 12:30N 34°09' E 128°37'6 8.1
2018-Apr-21 11:48N 34°04' E 128°33'45 9.8
2018-Apr-21 07:13N 33°28' E 128°00'412.1
2018-Apr-21 06:54N 33°25' E 127°57'18513.9
2018-Apr-20 17:38N 31°03' E 125°38'45716.0
2018-Apr-19 13:03N 25°13' E 120°04'216.9
2018-Apr-19 12:54N 25°11' E 120°02'717.2
2018-Apr-19 12:29N 25°06' E 119°56'817.4
2018-Apr-19 12:00N 25°00' E 119°50'917.7
2018-Apr-19 11:30N 24°54' E 119°43'917.5
2018-Apr-19 11:00N 24°48' E 119°36'917.4
2018-Apr-19 10:30N 24°41' E 119°30'916.8
2018-Apr-19 09:57N 24°36' E 119°21'816.5
2018-Apr-19 09:27N 24°31' E 119°14'716.1
2018-Apr-19 09:00N 24°26' E 119°08'815.9
2018-Apr-19 08:30N 24°21' E 119°01'1015.6
2018-Apr-19 07:50N 24°15' E 118°52'515.5
2018-Apr-19 07:30N 24°12' E 118°48'815.6
2018-Apr-19 07:00N 24°07' E 118°41'815.5
2018-Apr-19 06:30N 24°03' E 118°34'815.7
2018-Apr-19 06:00N 23°58' E 118°28'815.9
2018-Apr-19 05:30N 23°52' E 118°21'816.2
2018-Apr-19 05:00N 23°47' E 118°14'916.5
2018-Apr-19 04:29N 23°41' E 118°08'816.6
2018-Apr-19 03:59N 23°36' E 118°00'917.4
2018-Apr-19 03:29N 23°30' E 117°54'817.4
2018-Apr-19 03:00N 23°24' E 117°48'917.4
2018-Apr-19 02:30N 23°16' E 117°42'917.4
2018-Apr-19 01:59N 23°09' E 117°36'  
Track history (hours):
 
Tides and Currents Weather Stations Pressure Air Temp Water Temp Dewpoint Dewpoint Depression Visibility Wind Speed Wind Dir Waves Ship Positions

Coscoshipping Danube

Last reported at 2018-Apr-25 13:51 UTC. Time now 2018-Apr-26 11:25 UTC.
Position N 30°32' E 122°29'.

Length 300 m; draft 11.4 m.

Type: Ship (hazmat cat A). MMSI: 477858800.

Date/timePositionNaut miles runAvg speedWind from/ knotsBaromVisibWave heightAir tempDewpointWater temp
2018-Apr-25 13:51N 30°32' E 122°29'410.5
2018-Apr-25 13:27N 30°32' E 122°34'1011.7
2018-Apr-25 12:35N 30°39' E 122°43'1 3.3
2018-Apr-25 12:16N 30°40' E 122°44'  
2018-Apr-22 16:31N 34°53' E 128°51'013.0
2018-Apr-22 16:30N 34°54' E 128°51'46 1.6
2018-Apr-21 12:32N 34°09' E 128°37'0 8.2
2018-Apr-21 12:30N 34°09' E 128°37'6 8.1
2018-Apr-21 11:48N 34°04' E 128°33'45 9.8
2018-Apr-21 07:13N 33°28' E 128°00'412.1
2018-Apr-21 06:54N 33°25' E 127°57'18513.9
2018-Apr-20 17:38N 31°03' E 125°38'45716.0
2018-Apr-19 13:03N 25°13' E 120°04'216.9
2018-Apr-19 12:54N 25°11' E 120°02'717.2
2018-Apr-19 12:29N 25°06' E 119°56'817.4
2018-Apr-19 12:00N 25°00' E 119°50'917.7
2018-Apr-19 11:30N 24°54' E 119°43'917.5
2018-Apr-19 11:00N 24°48' E 119°36'917.4
2018-Apr-19 10:30N 24°41' E 119°30'916.8
2018-Apr-19 09:57N 24°36' E 119°21'816.5
2018-Apr-19 09:27N 24°31' E 119°14'716.1
2018-Apr-19 09:00N 24°26' E 119°08'815.9
2018-Apr-19 08:30N 24°21' E 119°01'1015.6
2018-Apr-19 07:50N 24°15' E 118°52'515.5
2018-Apr-19 07:30N 24°12' E 118°48'815.6
2018-Apr-19 07:00N 24°07' E 118°41'815.5
2018-Apr-19 06:30N 24°03' E 118°34'815.7
2018-Apr-19 06:00N 23°58' E 118°28'815.9
2018-Apr-19 05:30N 23°52' E 118°21'816.2
2018-Apr-19 05:00N 23°47' E 118°14'916.5
2018-Apr-19 04:29N 23°41' E 118°08'816.6
2018-Apr-19 03:59N 23°36' E 118°00'917.4
2018-Apr-19 03:29N 23°30' E 117°54'817.4
2018-Apr-19 03:00N 23°24' E 117°48'917.4
2018-Apr-19 02:30N 23°16' E 117°42'917.4
2018-Apr-19 01:59N 23°09' E 117°36'  

Dump ship's entire track history